sensor_id;sensor_type;location;lat;lon;timestamp;temperature;humidity
6293;DHT22;3179;54.350;10.102;2023-11-21T00:00:50;10.40;99.90
6293;DHT22;3179;54.350;10.102;2023-11-21T00:03:16;10.40;99.90
6293;DHT22;3179;54.350;10.102;2023-11-21T00:05:44;10.40;99.90
6293;DHT22;3179;54.350;10.102;2023-11-21T00:08:11;10.40;99.90
6293;DHT22;3179;54.350;10.102;2023-11-21T00:10:38;10.40;99.90
6293;DHT22;3179;54.350;10.102;2023-11-21T00:13:04;10.40;99.90
6293;DHT22;3179;54.350;10.102;2023-11-21T00:15:33;10.40;99.90
6293;DHT22;3179;54.350;10.102;2023-11-21T00:18:00;10.40;99.90
6293;DHT22;3179;54.350;10.102;2023-11-21T00:20:26;10.40;99.90
6293;DHT22;3179;54.350;10.102;2023-11-21T00:22:53;10.40;99.90
6293;DHT22;3179;54.350;10.102;2023-11-21T00:25:20;10.30;99.90
6293;DHT22;3179;54.350;10.102;2023-11-21T00:27:47;10.30;99.90
6293;DHT22;3179;54.350;10.102;2023-11-21T00:30:14;10.30;99.90
6293;DHT22;3179;54.350;10.102;2023-11-21T00:32:42;10.30;99.90
6293;DHT22;3179;54.350;10.102;2023-11-21T00:35:10;10.30;99.90
6293;DHT22;3179;54.350;10.102;2023-11-21T00:37:37;10.30;99.90
6293;DHT22;3179;54.350;10.102;2023-11-21T00:40:05;10.30;99.90
6293;DHT22;3179;54.350;10.102;2023-11-21T00:42:32;10.30;99.90
6293;DHT22;3179;54.350;10.102;2023-11-21T00:45:00;10.30;99.90
6293;DHT22;3179;54.350;10.102;2023-11-21T00:47:26;10.30;99.90
6293;DHT22;3179;54.350;10.102;2023-11-21T00:49:54;10.30;99.90
6293;DHT22;3179;54.350;10.102;2023-11-21T00:52:22;10.30;99.90
6293;DHT22;3179;54.350;10.102;2023-11-21T00:54:49;10.30;99.90
6293;DHT22;3179;54.350;10.102;2023-11-21T00:57:16;10.30;99.90
6293;DHT22;3179;54.350;10.102;2023-11-21T00:59:42;10.20;99.90
6293;DHT22;3179;54.350;10.102;2023-11-21T01:02:09;10.30;99.90
6293;DHT22;3179;54.350;10.102;2023-11-21T01:04:36;10.30;99.90
6293;DHT22;3179;54.350;10.102;2023-11-21T01:07:04;10.30;99.90
6293;DHT22;3179;54.350;10.102;2023-11-21T01:09:32;10.30;99.90
6293;DHT22;3179;54.350;10.102;2023-11-21T01:11:59;10.30;99.90
6293;DHT22;3179;54.350;10.102;2023-11-21T01:14:26;10.20;99.90
6293;DHT22;3179;54.350;10.102;2023-11-21T01:16:53;10.20;99.90
6293;DHT22;3179;54.350;10.102;2023-11-21T01:19:20;10.20;99.90
6293;DHT22;3179;54.350;10.102;2023-11-21T01:21:47;10.10;99.90
6293;DHT22;3179;54.350;10.102;2023-11-21T01:24:15;10.20;99.90
6293;DHT22;3179;54.350;10.102;2023-11-21T01:26:41;10.20;99.90
6293;DHT22;3179;54.350;10.102;2023-11-21T01:29:08;10.10;99.90
6293;DHT22;3179;54.350;10.102;2023-11-21T01:31:35;10.20;99.90
6293;DHT22;3179;54.350;10.102;2023-11-21T01:34:02;10.10;99.90
6293;DHT22;3179;54.350;10.102;2023-11-21T01:36:30;10.10;99.90
6293;DHT22;3179;54.350;10.102;2023-11-21T01:38:58;10.10;99.90
6293;DHT22;3179;54.350;10.102;2023-11-21T01:41:27;10.10;99.90
6293;DHT22;3179;54.350;10.102;2023-11-21T01:43:54;10.10;99.90
6293;DHT22;3179;54.350;10.102;2023-11-21T01:46:21;10.10;99.90
6293;DHT22;3179;54.350;10.102;2023-11-21T01:48:49;10.10;99.90
6293;DHT22;3179;54.350;10.102;2023-11-21T01:51:16;10.10;99.90
6293;DHT22;3179;54.350;10.102;2023-11-21T01:53:44;10.10;99.90
6293;DHT22;3179;54.350;10.102;2023-11-21T01:56:10;10.00;99.90
6293;DHT22;3179;54.350;10.102;2023-11-21T01:58:39;10.00;99.90
6293;DHT22;3179;54.350;10.102;2023-11-21T02:01:06;10.10;99.90
6293;DHT22;3179;54.350;10.102;2023-11-21T02:03:34;10.00;99.90
6293;DHT22;3179;54.350;10.102;2023-11-21T02:06:01;10.00;99.90
6293;DHT22;3179;54.350;10.102;2023-11-21T02:08:28;10.10;99.90
6293;DHT22;3179;54.350;10.102;2023-11-21T02:10:55;10.10;99.90
6293;DHT22;3179;54.350;10.102;2023-11-21T02:13:23;10.10;99.90
6293;DHT22;3179;54.350;10.102;2023-11-21T02:15:51;10.00;99.90
6293;DHT22;3179;54.350;10.102;2023-11-21T02:18:19;10.00;99.90
6293;DHT22;3179;54.350;10.102;2023-11-21T02:20:47;10.00;99.90
6293;DHT22;3179;54.350;10.102;2023-11-21T02:23:15;10.10;99.90
6293;DHT22;3179;54.350;10.102;2023-11-21T02:25:43;10.00;99.90
6293;DHT22;3179;54.350;10.102;2023-11-21T02:28:10;10.00;99.90
6293;DHT22;3179;54.350;10.102;2023-11-21T02:30:38;10.00;99.90
6293;DHT22;3179;54.350;10.102;2023-11-21T02:33:05;10.00;99.90
6293;DHT22;3179;54.350;10.102;2023-11-21T02:35:32;10.00;99.90
6293;DHT22;3179;54.350;10.102;2023-11-21T02:38:00;10.00;99.90
6293;DHT22;3179;54.350;10.102;2023-11-21T02:40:29;10.00;99.90
6293;DHT22;3179;54.350;10.102;2023-11-21T02:42:56;10.00;99.90
6293;DHT22;3179;54.350;10.102;2023-11-21T02:45:24;10.00;99.90
6293;DHT22;3179;54.350;10.102;2023-11-21T02:47:51;9.90;99.90
6293;DHT22;3179;54.350;10.102;2023-11-21T02:50:22;9.90;99.90
6293;DHT22;3179;54.350;10.102;2023-11-21T02:52:49;10.00;99.90
6293;DHT22;3179;54.350;10.102;2023-11-21T02:55:17;10.00;99.90
6293;DHT22;3179;54.350;10.102;2023-11-21T02:57:45;9.90;99.90
6293;DHT22;3179;54.350;10.102;2023-11-21T03:00:12;9.90;99.90
6293;DHT22;3179;54.350;10.102;2023-11-21T03:02:40;9.90;99.90
6293;DHT22;3179;54.350;10.102;2023-11-21T03:05:08;9.90;99.90
6293;DHT22;3179;54.350;10.102;2023-11-21T03:07:35;10.00;99.90
6293;DHT22;3179;54.350;10.102;2023-11-21T03:10:03;9.90;99.90
6293;DHT22;3179;54.350;10.102;2023-11-21T03:12:30;9.90;99.90
6293;DHT22;3179;54.350;10.102;2023-11-21T03:14:58;9.90;99.90
6293;DHT22;3179;54.350;10.102;2023-11-21T03:17:25;9.90;99.90
6293;DHT22;3179;54.350;10.102;2023-11-21T03:19:52;9.90;99.90
6293;DHT22;3179;54.350;10.102;2023-11-21T03:22:18;9.90;99.90
6293;DHT22;3179;54.350;10.102;2023-11-21T03:24:45;9.90;99.90
6293;DHT22;3179;54.350;10.102;2023-11-21T03:27:12;9.90;99.90
6293;DHT22;3179;54.350;10.102;2023-11-21T03:29:39;9.90;99.90
6293;DHT22;3179;54.350;10.102;2023-11-21T03:32:07;9.90;99.90
6293;DHT22;3179;54.350;10.102;2023-11-21T03:34:34;9.90;99.90
6293;DHT22;3179;54.350;10.102;2023-11-21T03:37:01;9.90;99.90
6293;DHT22;3179;54.350;10.102;2023-11-21T03:39:28;9.90;99.90
6293;DHT22;3179;54.350;10.102;2023-11-21T03:41:54;9.90;99.90
6293;DHT22;3179;54.350;10.102;2023-11-21T03:44:21;9.90;99.90
6293;DHT22;3179;54.350;10.102;2023-11-21T03:46:48;9.90;99.90
6293;DHT22;3179;54.350;10.102;2023-11-21T03:49:16;9.90;99.90
6293;DHT22;3179;54.350;10.102;2023-11-21T03:51:43;9.90;99.90
6293;DHT22;3179;54.350;10.102;2023-11-21T03:54:10;9.80;99.90
6293;DHT22;3179;54.350;10.102;2023-11-21T03:56:37;9.80;99.90
6293;DHT22;3179;54.350;10.102;2023-11-21T03:59:03;9.80;99.90
6293;DHT22;3179;54.350;10.102;2023-11-21T04:01:31;9.90;99.90
6293;DHT22;3179;54.350;10.102;2023-11-21T04:03:58;9.90;99.90
6293;DHT22;3179;54.350;10.102;2023-11-21T04:06:26;9.80;99.90
6293;DHT22;3179;54.350;10.102;2023-11-21T04:08:53;9.90;99.90
6293;DHT22;3179;54.350;10.102;2023-11-21T04:11:20;9.80;99.90
6293;DHT22;3179;54.350;10.102;2023-11-21T04:13:47;9.80;99.90
6293;DHT22;3179;54.350;10.102;2023-11-21T04:16:13;9.90;99.90
6293;DHT22;3179;54.350;10.102;2023-11-21T04:18:40;9.90;99.90
6293;DHT22;3179;54.350;10.102;2023-11-21T04:21:07;9.90;99.90
6293;DHT22;3179;54.350;10.102;2023-11-21T04:23:36;9.80;99.90
6293;DHT22;3179;54.350;10.102;2023-11-21T04:26:02;9.80;99.90
6293;DHT22;3179;54.350;10.102;2023-11-21T04:28:29;9.80;99.90
6293;DHT22;3179;54.350;10.102;2023-11-21T04:30:56;9.80;99.90
6293;DHT22;3179;54.350;10.102;2023-11-21T04:33:23;9.80;99.90
6293;DHT22;3179;54.350;10.102;2023-11-21T04:35:51;9.80;99.90
6293;DHT22;3179;54.350;10.102;2023-11-21T04:38:17;9.80;99.90
6293;DHT22;3179;54.350;10.102;2023-11-21T04:40:46;9.80;99.90
6293;DHT22;3179;54.350;10.102;2023-11-21T04:43:12;9.80;99.90
6293;DHT22;3179;54.350;10.102;2023-11-21T04:45:39;9.80;99.90
6293;DHT22;3179;54.350;10.102;2023-11-21T04:48:07;9.80;99.90
6293;DHT22;3179;54.350;10.102;2023-11-21T04:50:34;9.80;99.90
6293;DHT22;3179;54.350;10.102;2023-11-21T04:53:00;9.80;99.90
6293;DHT22;3179;54.350;10.102;2023-11-21T04:55:27;9.80;99.90
6293;DHT22;3179;54.350;10.102;2023-11-21T04:57:55;9.80;99.90
6293;DHT22;3179;54.350;10.102;2023-11-21T05:00:22;9.70;99.90
6293;DHT22;3179;54.350;10.102;2023-11-21T05:02:49;9.80;99.90
6293;DHT22;3179;54.350;10.102;2023-11-21T05:05:16;9.70;99.90
6293;DHT22;3179;54.350;10.102;2023-11-21T05:07:43;9.70;99.90
6293;DHT22;3179;54.350;10.102;2023-11-21T05:10:10;9.80;99.90
6293;DHT22;3179;54.350;10.102;2023-11-21T05:12:38;9.70;99.90
6293;DHT22;3179;54.350;10.102;2023-11-21T05:15:07;9.70;99.90
6293;DHT22;3179;54.350;10.102;2023-11-21T05:17:35;9.70;99.90
6293;DHT22;3179;54.350;10.102;2023-11-21T05:20:03;9.70;99.90
6293;DHT22;3179;54.350;10.102;2023-11-21T05:22:34;9.70;99.90
6293;DHT22;3179;54.350;10.102;2023-11-21T05:25:01;9.70;99.90
6293;DHT22;3179;54.350;10.102;2023-11-21T05:27:28;9.70;99.90
6293;DHT22;3179;54.350;10.102;2023-11-21T05:29:55;9.70;99.90
6293;DHT22;3179;54.350;10.102;2023-11-21T05:32:23;9.70;99.90
6293;DHT22;3179;54.350;10.102;2023-11-21T05:34:50;9.70;99.90
6293;DHT22;3179;54.350;10.102;2023-11-21T05:37:16;9.70;99.90
6293;DHT22;3179;54.350;10.102;2023-11-21T05:39:44;9.70;99.90
6293;DHT22;3179;54.350;10.102;2023-11-21T05:42:10;9.70;99.90
6293;DHT22;3179;54.350;10.102;2023-11-21T05:44:37;9.70;99.90
6293;DHT22;3179;54.350;10.102;2023-11-21T05:47:07;9.70;99.90
6293;DHT22;3179;54.350;10.102;2023-11-21T05:49:35;9.70;99.90
6293;DHT22;3179;54.350;10.102;2023-11-21T05:52:02;9.70;99.90
6293;DHT22;3179;54.350;10.102;2023-11-21T05:54:30;9.70;99.90
6293;DHT22;3179;54.350;10.102;2023-11-21T05:56:57;9.70;99.90
6293;DHT22;3179;54.350;10.102;2023-11-21T05:59:24;9.70;99.90
6293;DHT22;3179;54.350;10.102;2023-11-21T06:01:50;9.60;99.90
6293;DHT22;3179;54.350;10.102;2023-11-21T06:04:17;9.60;99.90
6293;DHT22;3179;54.350;10.102;2023-11-21T06:06:45;9.70;99.90
6293;DHT22;3179;54.350;10.102;2023-11-21T06:09:12;9.70;99.90
6293;DHT22;3179;54.350;10.102;2023-11-21T06:11:39;9.60;99.90
6293;DHT22;3179;54.350;10.102;2023-11-21T06:14:06;9.60;99.90
6293;DHT22;3179;54.350;10.102;2023-11-21T06:16:35;9.60;99.90
6293;DHT22;3179;54.350;10.102;2023-11-21T06:19:01;9.70;99.90
6293;DHT22;3179;54.350;10.102;2023-11-21T06:21:28;9.70;99.90
6293;DHT22;3179;54.350;10.102;2023-11-21T06:23:56;9.60;99.90
6293;DHT22;3179;54.350;10.102;2023-11-21T06:26:23;9.60;99.90
6293;DHT22;3179;54.350;10.102;2023-11-21T06:28:51;9.60;99.90
6293;DHT22;3179;54.350;10.102;2023-11-21T06:31:18;9.50;99.90
6293;DHT22;3179;54.350;10.102;2023-11-21T06:33:47;9.60;99.90
6293;DHT22;3179;54.350;10.102;2023-11-21T06:36:14;9.50;99.90
6293;DHT22;3179;54.350;10.102;2023-11-21T06:38:40;9.60;99.90
6293;DHT22;3179;54.350;10.102;2023-11-21T06:41:08;9.50;99.90
6293;DHT22;3179;54.350;10.102;2023-11-21T06:43:35;9.60;99.90
6293;DHT22;3179;54.350;10.102;2023-11-21T06:46:02;9.50;99.90
6293;DHT22;3179;54.350;10.102;2023-11-21T06:48:30;9.50;99.90
6293;DHT22;3179;54.350;10.102;2023-11-21T06:50:56;9.50;99.90
6293;DHT22;3179;54.350;10.102;2023-11-21T06:53:23;9.50;99.90
6293;DHT22;3179;54.350;10.102;2023-11-21T06:55:50;9.50;99.90
6293;DHT22;3179;54.350;10.102;2023-11-21T06:58:18;9.60;99.90
6293;DHT22;3179;54.350;10.102;2023-11-21T07:00:45;9.60;99.90
6293;DHT22;3179;54.350;10.102;2023-11-21T07:03:14;9.50;99.90
6293;DHT22;3179;54.350;10.102;2023-11-21T07:05:40;9.50;99.90
6293;DHT22;3179;54.350;10.102;2023-11-21T07:08:07;9.50;99.90
6293;DHT22;3179;54.350;10.102;2023-11-21T07:10:34;9.50;99.90
6293;DHT22;3179;54.350;10.102;2023-11-21T07:13:02;9.50;99.90
6293;DHT22;3179;54.350;10.102;2023-11-21T07:15:30;9.50;99.90
6293;DHT22;3179;54.350;10.102;2023-11-21T07:17:57;9.50;99.90
6293;DHT22;3179;54.350;10.102;2023-11-21T07:20:23;9.50;99.90
6293;DHT22;3179;54.350;10.102;2023-11-21T07:22:50;9.50;99.90
6293;DHT22;3179;54.350;10.102;2023-11-21T07:25:17;9.50;99.90
6293;DHT22;3179;54.350;10.102;2023-11-21T07:27:44;9.50;99.90
6293;DHT22;3179;54.350;10.102;2023-11-21T07:30:13;9.50;99.90
6293;DHT22;3179;54.350;10.102;2023-11-21T07:32:41;9.50;99.90
6293;DHT22;3179;54.350;10.102;2023-11-21T07:35:08;9.50;99.90
6293;DHT22;3179;54.350;10.102;2023-11-21T07:37:35;9.50;99.90
6293;DHT22;3179;54.350;10.102;2023-11-21T07:40:02;9.50;99.90
6293;DHT22;3179;54.350;10.102;2023-11-21T07:42:29;9.40;99.90
6293;DHT22;3179;54.350;10.102;2023-11-21T07:44:56;9.50;99.90
6293;DHT22;3179;54.350;10.102;2023-11-21T07:47:22;9.50;99.90
6293;DHT22;3179;54.350;10.102;2023-11-21T07:49:54;9.50;99.90
6293;DHT22;3179;54.350;10.102;2023-11-21T07:52:22;9.50;99.90
6293;DHT22;3179;54.350;10.102;2023-11-21T07:54:49;9.50;99.90
6293;DHT22;3179;54.350;10.102;2023-11-21T07:57:16;9.50;99.90
6293;DHT22;3179;54.350;10.102;2023-11-21T07:59:43;9.50;99.90
6293;DHT22;3179;54.350;10.102;2023-11-21T08:02:10;9.50;99.90
6293;DHT22;3179;54.350;10.102;2023-11-21T08:04:36;9.50;99.90
6293;DHT22;3179;54.350;10.102;2023-11-21T08:07:05;9.50;99.90
6293;DHT22;3179;54.350;10.102;2023-11-21T08:09:31;9.50;99.90
6293;DHT22;3179;54.350;10.102;2023-11-21T08:11:59;9.60;99.90
6293;DHT22;3179;54.350;10.102;2023-11-21T08:14:28;9.60;99.90
6293;DHT22;3179;54.350;10.102;2023-11-21T08:16:54;9.60;99.90
6293;DHT22;3179;54.350;10.102;2023-11-21T08:19:23;9.60;99.90
6293;DHT22;3179;54.350;10.102;2023-11-21T08:21:50;9.60;99.90
6293;DHT22;3179;54.350;10.102;2023-11-21T08:24:21;9.60;99.90
6293;DHT22;3179;54.350;10.102;2023-11-21T08:26:48;9.60;99.90
6293;DHT22;3179;54.350;10.102;2023-11-21T08:29:15;9.60;99.90
6293;DHT22;3179;54.350;10.102;2023-11-21T08:31:42;9.60;99.90
6293;DHT22;3179;54.350;10.102;2023-11-21T08:34:10;9.60;99.90
6293;DHT22;3179;54.350;10.102;2023-11-21T08:36:41;9.60;99.90
6293;DHT22;3179;54.350;10.102;2023-11-21T08:39:08;9.60;99.90
6293;DHT22;3179;54.350;10.102;2023-11-21T08:41:36;9.60;99.90
6293;DHT22;3179;54.350;10.102;2023-11-21T08:44:03;9.70;99.90
6293;DHT22;3179;54.350;10.102;2023-11-21T08:46:32;9.70;99.90
6293;DHT22;3179;54.350;10.102;2023-11-21T08:49:00;9.70;99.90
6293;DHT22;3179;54.350;10.102;2023-11-21T08:51:27;9.70;99.90
6293;DHT22;3179;54.350;10.102;2023-11-21T08:53:54;9.70;99.90
6293;DHT22;3179;54.350;10.102;2023-11-21T08:56:24;9.70;99.90
6293;DHT22;3179;54.350;10.102;2023-11-21T08:58:52;9.70;99.90
6293;DHT22;3179;54.350;10.102;2023-11-21T09:01:19;9.70;99.90
6293;DHT22;3179;54.350;10.102;2023-11-21T09:03:46;9.70;99.90
6293;DHT22;3179;54.350;10.102;2023-11-21T09:06:13;9.70;99.90
6293;DHT22;3179;54.350;10.102;2023-11-21T09:08:40;9.70;99.90
6293;DHT22;3179;54.350;10.102;2023-11-21T09:11:07;9.70;99.90
6293;DHT22;3179;54.350;10.102;2023-11-21T09:13:34;9.70;99.90
6293;DHT22;3179;54.350;10.102;2023-11-21T09:16:03;9.80;99.90
6293;DHT22;3179;54.350;10.102;2023-11-21T09:18:31;9.80;99.90
6293;DHT22;3179;54.350;10.102;2023-11-21T09:20:57;9.70;99.90
6293;DHT22;3179;54.350;10.102;2023-11-21T09:23:24;9.70;99.90
6293;DHT22;3179;54.350;10.102;2023-11-21T09:25:52;9.70;99.90
6293;DHT22;3179;54.350;10.102;2023-11-21T09:28:22;9.70;99.90
6293;DHT22;3179;54.350;10.102;2023-11-21T09:30:49;9.70;99.90
6293;DHT22;3179;54.350;10.102;2023-11-21T09:33:17;9.70;99.90
6293;DHT22;3179;54.350;10.102;2023-11-21T09:35:44;9.70;99.90
6293;DHT22;3179;54.350;10.102;2023-11-21T09:38:11;9.80;99.90
6293;DHT22;3179;54.350;10.102;2023-11-21T09:40:38;9.80;99.90
6293;DHT22;3179;54.350;10.102;2023-11-21T09:43:07;9.80;99.90
6293;DHT22;3179;54.350;10.102;2023-11-21T09:45:35;9.80;99.90
6293;DHT22;3179;54.350;10.102;2023-11-21T09:48:02;9.80;99.90
6293;DHT22;3179;54.350;10.102;2023-11-21T09:50:32;9.80;99.90
6293;DHT22;3179;54.350;10.102;2023-11-21T09:53:07;9.80;99.90
6293;DHT22;3179;54.350;10.102;2023-11-21T09:55:37;9.80;99.90
6293;DHT22;3179;54.350;10.102;2023-11-21T09:58:06;9.80;99.90
6293;DHT22;3179;54.350;10.102;2023-11-21T10:00:39;9.80;99.90
6293;DHT22;3179;54.350;10.102;2023-11-21T10:03:06;9.80;99.90
6293;DHT22;3179;54.350;10.102;2023-11-21T10:05:35;9.80;99.90
6293;DHT22;3179;54.350;10.102;2023-11-21T10:08:04;9.80;99.90
6293;DHT22;3179;54.350;10.102;2023-11-21T10:10:33;9.80;99.90
6293;DHT22;3179;54.350;10.102;2023-11-21T10:13:02;9.70;99.90
6293;DHT22;3179;54.350;10.102;2023-11-21T10:15:33;9.80;99.90
6293;DHT22;3179;54.350;10.102;2023-11-21T10:18:02;9.80;99.90
6293;DHT22;3179;54.350;10.102;2023-11-21T10:20:30;9.80;99.90
6293;DHT22;3179;54.350;10.102;2023-11-21T10:23:00;9.80;99.90
6293;DHT22;3179;54.350;10.102;2023-11-21T10:25:29;9.80;99.90
6293;DHT22;3179;54.350;10.102;2023-11-21T10:27:58;9.70;99.90
6293;DHT22;3179;54.350;10.102;2023-11-21T10:30:29;9.70;99.90
6293;DHT22;3179;54.350;10.102;2023-11-21T10:32:59;9.70;99.90
6293;DHT22;3179;54.350;10.102;2023-11-21T10:35:38;9.70;99.90
6293;DHT22;3179;54.350;10.102;2023-11-21T10:38:06;9.70;99.90
6293;DHT22;3179;54.350;10.102;2023-11-21T10:40:38;9.70;99.90
6293;DHT22;3179;54.350;10.102;2023-11-21T10:43:07;9.70;99.90
6293;DHT22;3179;54.350;10.102;2023-11-21T10:45:35;9.70;99.90
6293;DHT22;3179;54.350;10.102;2023-11-21T10:48:05;9.70;99.90
6293;DHT22;3179;54.350;10.102;2023-11-21T10:50:34;9.60;99.90
6293;DHT22;3179;54.350;10.102;2023-11-21T10:53:05;9.60;99.90
6293;DHT22;3179;54.350;10.102;2023-11-21T10:55:46;9.70;99.90
6293;DHT22;3179;54.350;10.102;2023-11-21T10:58:21;9.70;99.90
6293;DHT22;3179;54.350;10.102;2023-11-21T11:00:52;9.70;99.90
6293;DHT22;3179;54.350;10.102;2023-11-21T11:03:19;9.70;99.90
6293;DHT22;3179;54.350;10.102;2023-11-21T11:05:49;9.70;99.90
6293;DHT22;3179;54.350;10.102;2023-11-21T11:08:19;9.70;99.90
6293;DHT22;3179;54.350;10.102;2023-11-21T11:10:53;9.70;99.90
6293;DHT22;3179;54.350;10.102;2023-11-21T11:13:20;9.60;99.90
6293;DHT22;3179;54.350;10.102;2023-11-21T11:15:48;9.60;99.90
6293;DHT22;3179;54.350;10.102;2023-11-21T11:18:15;9.60;99.90
6293;DHT22;3179;54.350;10.102;2023-11-21T11:20:43;9.60;99.90
6293;DHT22;3179;54.350;10.102;2023-11-21T11:23:41;9.60;99.90
6293;DHT22;3179;54.350;10.102;2023-11-21T11:26:20;9.60;99.90
6293;DHT22;3179;54.350;10.102;2023-11-21T11:28:57;9.60;99.90
6293;DHT22;3179;54.350;10.102;2023-11-21T11:31:37;9.60;99.90
6293;DHT22;3179;54.350;10.102;2023-11-21T11:34:13;9.60;99.90
6293;DHT22;3179;54.350;10.102;2023-11-21T11:36:47;9.60;99.90
6293;DHT22;3179;54.350;10.102;2023-11-21T11:39:27;9.60;99.90
6293;DHT22;3179;54.350;10.102;2023-11-21T11:41:56;9.60;99.90
6293;DHT22;3179;54.350;10.102;2023-11-21T11:44:50;9.60;99.90
6293;DHT22;3179;54.350;10.102;2023-11-21T11:47:21;9.60;99.90
6293;DHT22;3179;54.350;10.102;2023-11-21T11:50:02;9.60;99.90
6293;DHT22;3179;54.350;10.102;2023-11-21T11:52:33;9.60;99.90
6293;DHT22;3179;54.350;10.102;2023-11-21T11:55:00;9.50;99.90
6293;DHT22;3179;54.350;10.102;2023-11-21T11:57:31;9.60;99.90
6293;DHT22;3179;54.350;10.102;2023-11-21T12:00:16;9.50;99.90
6293;DHT22;3179;54.350;10.102;2023-11-21T12:02:46;9.50;99.90
6293;DHT22;3179;54.350;10.102;2023-11-21T12:05:14;9.60;99.90
6293;DHT22;3179;54.350;10.102;2023-11-21T12:07:46;9.60;99.90
6293;DHT22;3179;54.350;10.102;2023-11-21T12:10:18;9.60;99.90
6293;DHT22;3179;54.350;10.102;2023-11-21T12:12:48;9.60;99.90
6293;DHT22;3179;54.350;10.102;2023-11-21T12:15:15;9.60;99.90
6293;DHT22;3179;54.350;10.102;2023-11-21T12:17:43;9.60;99.90
6293;DHT22;3179;54.350;10.102;2023-11-21T12:20:10;9.60;99.90
6293;DHT22;3179;54.350;10.102;2023-11-21T12:22:45;9.60;99.90
6293;DHT22;3179;54.350;10.102;2023-11-21T12:25:14;9.60;99.90
6293;DHT22;3179;54.350;10.102;2023-11-21T12:27:44;9.60;99.90
6293;DHT22;3179;54.350;10.102;2023-11-21T12:30:13;9.60;99.90
6293;DHT22;3179;54.350;10.102;2023-11-21T12:32:41;9.60;99.90
6293;DHT22;3179;54.350;10.102;2023-11-21T12:35:09;9.60;99.90
6293;DHT22;3179;54.350;10.102;2023-11-21T12:37:36;9.60;99.90
6293;DHT22;3179;54.350;10.102;2023-11-21T12:40:05;9.60;99.90
6293;DHT22;3179;54.350;10.102;2023-11-21T12:42:33;9.60;99.90
6293;DHT22;3179;54.350;10.102;2023-11-21T12:45:17;9.60;99.90
6293;DHT22;3179;54.350;10.102;2023-11-21T12:47:48;9.60;99.90
6293;DHT22;3179;54.350;10.102;2023-11-21T12:50:15;9.50;99.90
6293;DHT22;3179;54.350;10.102;2023-11-21T12:52:47;9.50;99.90
6293;DHT22;3179;54.350;10.102;2023-11-21T12:55:15;9.60;99.90
6293;DHT22;3179;54.350;10.102;2023-11-21T12:57:43;9.50;99.90
6293;DHT22;3179;54.350;10.102;2023-11-21T13:00:13;9.50;99.90
6293;DHT22;3179;54.350;10.102;2023-11-21T13:02:54;9.50;99.90
6293;DHT22;3179;54.350;10.102;2023-11-21T13:05:26;9.50;99.90
6293;DHT22;3179;54.350;10.102;2023-11-21T13:07:54;9.50;99.90
6293;DHT22;3179;54.350;10.102;2023-11-21T13:10:23;9.50;99.90
6293;DHT22;3179;54.350;10.102;2023-11-21T13:12:51;9.50;99.90
6293;DHT22;3179;54.350;10.102;2023-11-21T13:15:19;9.50;99.90
6293;DHT22;3179;54.350;10.102;2023-11-21T13:17:46;9.50;99.90
6293;DHT22;3179;54.350;10.102;2023-11-21T13:20:15;9.40;99.90
6293;DHT22;3179;54.350;10.102;2023-11-21T13:22:47;9.40;99.90
6293;DHT22;3179;54.350;10.102;2023-11-21T13:25:15;9.40;99.90
6293;DHT22;3179;54.350;10.102;2023-11-21T13:27:43;9.40;99.90
6293;DHT22;3179;54.350;10.102;2023-11-21T13:30:12;9.40;99.90
6293;DHT22;3179;54.350;10.102;2023-11-21T13:32:41;9.40;99.90
6293;DHT22;3179;54.350;10.102;2023-11-21T13:35:08;9.40;99.90
6293;DHT22;3179;54.350;10.102;2023-11-21T13:37:42;9.40;99.90
6293;DHT22;3179;54.350;10.102;2023-11-21T13:40:11;9.40;99.90
6293;DHT22;3179;54.350;10.102;2023-11-21T13:42:40;9.50;99.90
6293;DHT22;3179;54.350;10.102;2023-11-21T13:45:09;9.40;99.90
6293;DHT22;3179;54.350;10.102;2023-11-21T13:47:42;9.40;99.90
6293;DHT22;3179;54.350;10.102;2023-11-21T13:50:13;9.40;99.90
6293;DHT22;3179;54.350;10.102;2023-11-21T13:52:49;9.40;99.90
6293;DHT22;3179;54.350;10.102;2023-11-21T13:55:18;9.40;99.90
6293;DHT22;3179;54.350;10.102;2023-11-21T13:57:45;9.40;99.90
6293;DHT22;3179;54.350;10.102;2023-11-21T14:00:16;9.40;99.90
6293;DHT22;3179;54.350;10.102;2023-11-21T14:03:12;9.40;99.90
6293;DHT22;3179;54.350;10.102;2023-11-21T14:05:46;9.30;99.90
6293;DHT22;3179;54.350;10.102;2023-11-21T14:08:17;9.30;99.90
6293;DHT22;3179;54.350;10.102;2023-11-21T14:10:45;9.30;99.90
6293;DHT22;3179;54.350;10.102;2023-11-21T14:13:16;9.30;99.90
6293;DHT22;3179;54.350;10.102;2023-11-21T14:15:43;9.30;99.90
6293;DHT22;3179;54.350;10.102;2023-11-21T14:18:13;9.30;99.90
6293;DHT22;3179;54.350;10.102;2023-11-21T14:20:42;9.40;99.90
6293;DHT22;3179;54.350;10.102;2023-11-21T14:23:10;9.30;99.90
6293;DHT22;3179;54.350;10.102;2023-11-21T14:25:37;9.30;99.90
6293;DHT22;3179;54.350;10.102;2023-11-21T14:28:05;9.30;99.90
6293;DHT22;3179;54.350;10.102;2023-11-21T14:30:32;9.30;99.90
6293;DHT22;3179;54.350;10.102;2023-11-21T14:33:01;9.30;99.90
6293;DHT22;3179;54.350;10.102;2023-11-21T14:35:29;9.30;99.90
6293;DHT22;3179;54.350;10.102;2023-11-21T14:37:58;9.20;99.90
6293;DHT22;3179;54.350;10.102;2023-11-21T14:40:26;9.20;99.90
6293;DHT22;3179;54.350;10.102;2023-11-21T14:42:58;9.20;99.90
6293;DHT22;3179;54.350;10.102;2023-11-21T14:45:24;9.20;99.90
6293;DHT22;3179;54.350;10.102;2023-11-21T14:47:52;9.20;99.90
6293;DHT22;3179;54.350;10.102;2023-11-21T14:50:33;9.20;99.90
6293;DHT22;3179;54.350;10.102;2023-11-21T14:53:13;9.20;99.90
6293;DHT22;3179;54.350;10.102;2023-11-21T14:55:41;9.10;99.90
6293;DHT22;3179;54.350;10.102;2023-11-21T14:58:20;9.10;99.90
6293;DHT22;3179;54.350;10.102;2023-11-21T15:00:53;9.00;99.90
6293;DHT22;3179;54.350;10.102;2023-11-21T15:03:23;9.00;99.90
6293;DHT22;3179;54.350;10.102;2023-11-21T15:06:10;9.00;99.90
6293;DHT22;3179;54.350;10.102;2023-11-21T15:08:54;8.90;99.90
6293;DHT22;3179;54.350;10.102;2023-11-21T15:11:42;8.90;99.90
6293;DHT22;3179;54.350;10.102;2023-11-21T15:14:09;8.90;99.90
6293;DHT22;3179;54.350;10.102;2023-11-21T15:16:38;8.90;99.90
6293;DHT22;3179;54.350;10.102;2023-11-21T15:19:08;8.80;99.90
6293;DHT22;3179;54.350;10.102;2023-11-21T15:21:37;8.80;99.90
6293;DHT22;3179;54.350;10.102;2023-11-21T15:24:04;8.80;99.90
6293;DHT22;3179;54.350;10.102;2023-11-21T15:26:32;8.80;99.90
6293;DHT22;3179;54.350;10.102;2023-11-21T15:28:58;8.80;99.90
6293;DHT22;3179;54.350;10.102;2023-11-21T15:31:25;8.70;99.90
6293;DHT22;3179;54.350;10.102;2023-11-21T15:33:52;8.70;99.90
6293;DHT22;3179;54.350;10.102;2023-11-21T15:36:19;8.70;99.90
6293;DHT22;3179;54.350;10.102;2023-11-21T15:38:47;8.70;99.90
6293;DHT22;3179;54.350;10.102;2023-11-21T15:41:14;8.70;99.90
6293;DHT22;3179;54.350;10.102;2023-11-21T15:43:41;8.70;99.90
6293;DHT22;3179;54.350;10.102;2023-11-21T15:46:08;8.60;99.90
6293;DHT22;3179;54.350;10.102;2023-11-21T15:48:35;8.60;99.90
6293;DHT22;3179;54.350;10.102;2023-11-21T15:51:04;8.60;99.90
6293;DHT22;3179;54.350;10.102;2023-11-21T15:53:31;8.60;99.90
6293;DHT22;3179;54.350;10.102;2023-11-21T15:56:00;8.60;99.90
6293;DHT22;3179;54.350;10.102;2023-11-21T15:58:27;8.50;99.90
6293;DHT22;3179;54.350;10.102;2023-11-21T16:00:54;8.50;99.90
6293;DHT22;3179;54.350;10.102;2023-11-21T16:03:22;8.50;99.90
6293;DHT22;3179;54.350;10.102;2023-11-21T16:05:49;8.50;99.90
6293;DHT22;3179;54.350;10.102;2023-11-21T16:08:16;8.50;99.90